Time;durP1;ratioP1;P1;durP2;ratioP2;P2;SDS_P1;SDS_P2;PMS_P1;PMS_P2;Temp;Humidity;BMP_temperature;BMP_pressure;BME280_temperature;BME280_humidity;BME280_pressure;Samples;Min_cycle;Max_cycle;Signal;HPM_P1;HPM_P2
2023/08/17 00:00:32;;;;;;;22.20;20.60;;;22.10;99.90;;;;;;4904841;29;20469;-84
2023/08/17 00:03:03;;;;;;;20.43;19.30;;;22.10;99.90;;;;;;4905941;29;21005;-87
2023/08/17 00:05:33;;;;;;;20.37;19.33;;;22.10;99.90;;;;;;4910085;29;20517;-86
2023/08/17 00:08:06;;;;;;;21.10;19.60;;;22.10;99.90;;;;;;4904259;29;20469;-85
2023/08/17 00:10:35;;;;;;;20.77;19.57;;;22.10;99.90;;;;;;4904891;29;20450;-84
2023/08/17 00:13:05;;;;;;;20.33;19.23;;;22.10;99.90;;;;;;4906339;29;20544;-85
2023/08/17 00:15:34;;;;;;;21.20;20.07;;;22.00;99.90;;;;;;4921333;29;20466;-84
2023/08/17 00:18:09;;;;;;;20.97;19.87;;;22.10;99.90;;;;;;4905480;29;20561;-85
2023/08/17 00:20:37;;;;;;;19.77;18.60;;;22.00;99.90;;;;;;4905788;29;20525;-86
2023/08/17 00:23:10;;;;;;;19.30;18.30;;;22.00;99.90;;;;;;4905600;29;21009;-85
2023/08/17 00:25:41;;;;;;;20.80;19.17;;;22.00;99.90;;;;;;4905671;29;20489;-86
2023/08/17 00:28:10;;;;;;;21.03;19.87;;;22.00;99.90;;;;;;4906671;29;20473;-86
2023/08/17 00:30:41;;;;;;;20.57;19.37;;;22.00;99.90;;;;;;4918526;29;20552;-87
2023/08/17 00:33:18;;;;;;;20.33;19.33;;;21.90;99.90;;;;;;4906244;29;20822;-84
2023/08/17 00:35:48;;;;;;;20.30;19.30;;;22.00;99.90;;;;;;4906001;29;20478;-84
2023/08/17 00:38:22;;;;;;;20.47;19.17;;;22.00;99.90;;;;;;4907236;29;20456;-85
2023/08/17 00:40:50;;;;;;;20.27;19.27;;;22.00;99.90;;;;;;4906480;29;20478;-86
2023/08/17 00:43:26;;;;;;;19.10;18.30;;;22.00;51.60;;;;;;4904262;29;20480;-85
2023/08/17 00:45:57;;;;;;;20.00;18.80;;;22.00;18.20;;;;;;4910285;29;20485;-85
2023/08/17 00:48:36;;;;;;;19.50;18.47;;;22.00;3.70;;;;;;4906596;29;20476;-86
2023/08/17 00:51:11;;;;;;;20.40;19.40;;;21.90;1.00;;;;;;4910085;29;20467;-85
2023/08/17 00:53:43;;;;;;;20.40;19.40;;;21.90;40.30;;;;;;4903469;29;20464;-85
2023/08/17 00:56:18;;;;;;;20.40;19.30;;;21.90;22.40;;;;;;4906206;29;20546;-84
2023/08/17 00:58:52;;;;;;;20.30;19.30;;;21.90;99.90;;;;;;4907330;29;20477;-85
2023/08/17 01:01:28;;;;;;;20.20;19.10;;;21.80;99.90;;;;;;4906324;29;20958;-84
2023/08/17 01:04:07;;;;;;;19.73;18.63;;;21.80;99.90;;;;;;4907664;29;20458;-83
2023/08/17 01:06:38;;;;;;;20.00;18.87;;;21.80;99.90;;;;;;4907424;29;21007;-85
2023/08/17 01:09:09;;;;;;;20.70;19.60;;;21.80;99.90;;;;;;4904963;29;21037;-84
2023/08/17 01:11:49;;;;;;;20.07;19.03;;;21.70;99.90;;;;;;4904218;29;20820;-85
2023/08/17 01:14:32;;;;;;;18.97;18.03;;;21.70;99.90;;;;;;4904901;29;20473;-85
2023/08/17 01:17:07;;;;;;;19.80;18.90;;;21.70;99.90;;;;;;4904022;29;21026;-84
2023/08/17 01:19:43;;;;;;;20.00;18.87;;;21.70;99.90;;;;;;4905960;29;20461;-86
2023/08/17 01:22:15;;;;;;;19.97;18.93;;;21.70;61.70;;;;;;4901596;29;20973;-85
2023/08/17 01:24:48;;;;;;;20.63;19.43;;;21.70;1.00;;;;;;4907980;29;20486;-84
2023/08/17 01:27:21;;;;;;;20.53;19.23;;;21.70;1.00;;;;;;4907627;29;20511;-86
2023/08/17 01:29:53;;;;;;;19.70;18.70;;;21.60;99.90;;;;;;4903246;29;20457;-84
2023/08/17 01:32:30;;;;;;;21.03;20.00;;;21.60;99.90;;;;;;4906746;29;20465;-85
2023/08/17 01:35:02;;;;;;;21.10;19.80;;;21.60;99.90;;;;;;4905428;29;20469;-84
2023/08/17 01:37:34;;;;;;;20.17;19.27;;;21.50;99.90;;;;;;4902701;29;20485;-86
2023/08/17 01:40:15;;;;;;;20.00;18.80;;;21.60;99.90;;;;;;4904993;29;20829;-85
2023/08/17 01:42:46;;;;;;;20.13;19.23;;;21.70;99.90;;;;;;4910339;29;20462;-86
2023/08/17 01:45:18;;;;;;;19.77;18.50;;;21.60;99.90;;;;;;4903841;29;20487;-87
2023/08/17 01:47:49;;;;;;;20.30;19.30;;;21.60;99.90;;;;;;4903997;29;20486;-88
2023/08/17 01:50:17;;;;;;;20.63;19.53;;;21.60;99.90;;;;;;4908197;29;21118;-85
2023/08/17 01:52:50;;;;;;;20.57;19.57;;;21.70;99.90;;;;;;4906160;29;20493;-85
2023/08/17 01:55:27;;;;;;;20.77;19.60;;;21.70;99.90;;;;;;4904967;29;20457;-84
2023/08/17 01:57:57;;;;;;;19.87;18.80;;;21.70;99.90;;;;;;4905484;29;20492;-85
2023/08/17 02:00:31;;;;;;;20.73;19.63;;;21.80;99.90;;;;;;4902076;29;20467;-85
2023/08/17 02:02:59;;;;;;;20.90;19.63;;;21.80;99.90;;;;;;4903998;29;20476;-85
2023/08/17 02:05:32;;;;;;;20.33;19.23;;;21.80;99.90;;;;;;4905455;29;20503;-84
2023/08/17 02:08:06;;;;;;;20.60;19.43;;;21.80;99.90;;;;;;4900590;29;20458;-85
2023/08/17 02:10:37;;;;;;;21.80;20.43;;;21.80;99.90;;;;;;4903434;29;20495;-85
2023/08/17 02:13:10;;;;;;;20.67;19.67;;;21.80;99.90;;;;;;4904596;29;20469;-86
2023/08/17 02:15:47;;;;;;;20.77;19.53;;;21.80;99.90;;;;;;4905256;29;20452;-89
2023/08/17 02:18:17;;;;;;;20.60;19.50;;;21.80;99.90;;;;;;4904182;29;20457;-85
2023/08/17 02:20:50;;;;;;;20.40;19.40;;;21.70;99.90;;;;;;4916549;29;21002;-84
2023/08/17 02:23:22;;;;;;;21.60;19.90;;;21.70;99.90;;;;;;4904736;29;20469;-84
2023/08/17 02:25:55;;;;;;;20.60;19.33;;;21.70;99.90;;;;;;4909049;29;20501;-85
2023/08/17 02:28:31;;;;;;;20.97;19.77;;;21.80;99.90;;;;;;4902722;29;20476;-86
2023/08/17 02:31:03;;;;;;;22.13;20.73;;;21.80;99.90;;;;;;4904635;29;20461;-85
2023/08/17 02:33:36;;;;;;;21.83;20.67;;;21.70;99.90;;;;;;4904597;29;20484;-84
2023/08/17 02:36:08;;;;;;;21.37;20.17;;;21.70;99.90;;;;;;4904711;29;20564;-85
2023/08/17 02:38:38;;;;;;;21.07;19.87;;;21.80;99.90;;;;;;4903584;29;20463;-84
2023/08/17 02:41:13;;;;;;;20.90;19.70;;;21.80;99.90;;;;;;4899674;29;20465;-86
2023/08/17 02:43:44;;;;;;;22.33;20.93;;;21.80;99.90;;;;;;4904556;29;21054;-84
2023/08/17 02:46:18;;;;;;;21.27;19.97;;;21.80;99.90;;;;;;4905514;29;20493;-85
2023/08/17 02:48:53;;;;;;;20.17;19.13;;;21.80;99.90;;;;;;4905234;29;20469;-84
2023/08/17 02:51:22;;;;;;;20.00;19.10;;;21.80;99.90;;;;;;4902631;29;20453;-84
2023/08/17 02:53:57;;;;;;;21.83;20.30;;;21.80;99.90;;;;;;4906886;29;20474;-85
2023/08/17 02:56:30;;;;;;;20.90;19.50;;;21.80;99.90;;;;;;4905344;28;20895;-85
2023/08/17 02:59:04;;;;;;;23.33;21.90;;;21.80;99.90;;;;;;4904695;29;20480;-84
2023/08/17 03:01:38;;;;;;;21.40;20.20;;;21.70;99.90;;;;;;4921087;29;20492;-85
2023/08/17 03:04:10;;;;;;;23.30;21.80;;;21.80;99.90;;;;;;4904138;29;20989;-85
2023/08/17 03:06:41;;;;;;;24.90;23.20;;;21.70;99.90;;;;;;4903247;29;20784;-86
2023/08/17 03:09:13;;;;;;;26.37;24.47;;;21.70;1.00;;;;;;4908820;29;20469;-85
2023/08/17 03:11:49;;;;;;;25.40;23.70;;;21.70;1.00;;;;;;4908484;29;20444;-84
2023/08/17 03:14:21;;;;;;;25.43;23.67;;;21.70;1.00;;;;;;4907912;29;20465;-85
2023/08/17 03:16:52;;;;;;;25.57;23.80;;;21.70;1.00;;;;;;4910923;29;20497;-85
2023/08/17 03:19:31;;;;;;;25.10;23.47;;;21.80;1.00;;;;;;4910149;29;20542;-85
2023/08/17 03:22:02;;;;;;;23.30;21.80;;;21.70;99.90;;;;;;4912339;29;20838;-86
2023/08/17 03:24:31;;;;;;;23.20;21.70;;;21.70;1.00;;;;;;4909367;29;20471;-86
2023/08/17 03:27:08;;;;;;;24.23;22.33;;;21.70;99.90;;;;;;4909719;29;20915;-84
2023/08/17 03:29:39;;;;;;;25.40;23.70;;;21.70;99.90;;;;;;4907818;29;20827;-85
2023/08/17 03:32:13;;;;;;;24.67;22.87;;;21.70;99.90;;;;;;4907755;29;20453;-86
2023/08/17 03:34:46;;;;;;;24.40;22.60;;;21.70;99.90;;;;;;4908256;29;20464;-84
2023/08/17 03:37:18;;;;;;;24.87;22.77;;;21.70;99.90;;;;;;4925504;29;20473;-85
2023/08/17 03:39:51;;;;;;;24.00;22.30;;;21.70;99.90;;;;;;4908817;29;20587;-85
2023/08/17 03:42:21;;;;;;;26.00;24.20;;;21.70;99.90;;;;;;4908280;29;20453;-84
2023/08/17 03:44:51;;;;;;;26.50;24.60;;;21.70;1.00;;;;;;4905266;28;20466;-85
2023/08/17 03:47:26;;;;;;;25.00;23.30;;;21.60;99.90;;;;;;4910767;29;20498;-85
2023/08/17 03:49:58;;;;;;;27.47;25.17;;;21.60;99.90;;;;;;4909695;29;20472;-85
2023/08/17 03:52:28;;;;;;;26.90;25.00;;;21.50;99.90;;;;;;4903924;29;20476;-85
2023/08/17 03:55:07;;;;;;;26.93;24.83;;;21.60;99.90;;;;;;4908688;29;20464;-84
2023/08/17 03:57:40;;;;;;;26.60;24.50;;;21.50;1.00;;;;;;4904632;29;20474;-84
2023/08/17 04:00:12;;;;;;;27.20;25.00;;;21.60;1.00;;;;;;4925007;29;20473;-84
2023/08/17 04:02:48;;;;;;;26.50;24.60;;;21.60;1.00;;;;;;4905668;29;20467;-84
2023/08/17 04:05:21;;;;;;;27.53;25.30;;;21.50;1.00;;;;;;4911056;29;20456;-85
2023/08/17 04:07:51;;;;;;;25.90;23.90;;;21.50;1.00;;;;;;4909565;29;20497;-85
2023/08/17 04:10:24;;;;;;;26.77;24.87;;;21.50;1.00;;;;;;4906780;29;20475;-84
2023/08/17 04:12:56;;;;;;;26.43;24.40;;;21.50;1.00;;;;;;4905851;29;20457;-84
2023/08/17 04:15:27;;;;;;;28.17;25.97;;;21.50;1.00;;;;;;4905373;29;21002;-85
2023/08/17 04:18:02;;;;;;;26.07;24.17;;;21.60;1.00;;;;;;4905150;29;20484;-89
2023/08/17 04:20:34;;;;;;;29.23;26.70;;;21.60;1.00;;;;;;4907902;29;20549;-86
2023/08/17 04:23:03;;;;;;;28.37;25.97;;;21.60;1.00;;;;;;4909019;29;20473;-85
2023/08/17 04:25:35;;;;;;;27.90;25.90;;;21.50;1.00;;;;;;4906283;29;20457;-84
2023/08/17 04:28:12;;;;;;;29.33;26.70;;;21.60;1.00;;;;;;4904158;29;20481;-85
2023/08/17 04:30:45;;;;;;;28.33;25.70;;;21.60;1.00;;;;;;4904122;29;20469;-85
2023/08/17 04:33:20;;;;;;;29.20;26.90;;;21.60;1.00;;;;;;4904784;29;20742;-84
2023/08/17 04:35:53;;;;;;;28.90;26.70;;;21.60;1.00;;;;;;4904905;29;20651;-89
2023/08/17 04:38:29;;;;;;;28.50;26.20;;;21.60;1.00;;;;;;4911610;29;20462;-84
2023/08/17 04:41:03;;;;;;;28.50;26.30;;;21.60;1.00;;;;;;4904079;29;20459;-85
2023/08/17 04:43:38;;;;;;;29.77;27.27;;;21.60;1.00;;;;;;4904329;29;21014;-85
2023/08/17 04:46:13;;;;;;;29.57;27.10;;;21.50;1.00;;;;;;4905736;29;20496;-85
2023/08/17 04:48:46;;;;;;;29.70;27.10;;;21.50;1.00;;;;;;4909728;29;20460;-84
2023/08/17 04:51:21;;;;;;;27.83;25.63;;;21.60;1.00;;;;;;4909900;29;20989;-86
2023/08/17 04:53:52;;;;;;;28.57;26.20;;;21.50;1.00;;;;;;4904596;29;20468;-86
2023/08/17 04:56:28;;;;;;;28.43;26.17;;;21.50;1.00;;;;;;4905033;29;21021;-85
2023/08/17 04:59:00;;;;;;;29.80;27.40;;;21.60;1.00;;;;;;4904057;29;20460;-84
2023/08/17 05:01:33;;;;;;;31.40;28.40;;;21.60;1.00;;;;;;4902388;29;20476;-84
2023/08/17 05:04:14;;;;;;;29.40;27.00;;;21.60;1.00;;;;;;4904931;29;20547;-85
2023/08/17 05:06:45;;;;;;;29.87;27.40;;;21.50;1.00;;;;;;4904241;29;20504;-84
2023/08/17 05:09:16;;;;;;;28.73;26.60;;;21.50;1.00;;;;;;4900452;29;21118;-84
2023/08/17 05:11:50;;;;;;;30.03;27.73;;;21.50;1.00;;;;;;4902726;29;20465;-86
2023/08/17 05:14:20;;;;;;;29.90;27.60;;;21.50;1.00;;;;;;4904635;29;20470;-86
2023/08/17 05:16:54;;;;;;;29.80;27.47;;;21.50;1.00;;;;;;4904838;29;20481;-84
2023/08/17 05:19:25;;;;;;;29.13;27.00;;;21.50;1.00;;;;;;4905762;29;20470;-85
2023/08/17 05:22:02;;;;;;;29.83;27.53;;;21.50;1.00;;;;;;4909399;29;20465;-84
2023/08/17 05:24:35;;;;;;;29.73;27.53;;;21.50;1.00;;;;;;4906648;29;20543;-85
2023/08/17 05:27:06;;;;;;;30.60;28.03;;;21.60;1.00;;;;;;4904115;29;20997;-84
2023/08/17 05:29:39;;;;;;;31.20;28.47;;;21.50;1.00;;;;;;4902198;29;20500;-84
2023/08/17 05:32:13;;;;;;;28.57;26.23;;;21.60;1.00;;;;;;4906223;29;20470;-84
2023/08/17 05:34:42;;;;;;;30.67;28.47;;;21.60;1.00;;;;;;4920659;29;20467;-85
2023/08/17 05:37:15;;;;;;;28.40;25.87;;;21.50;1.00;;;;;;4910327;29;20493;-84
2023/08/17 05:39:49;;;;;;;27.70;25.70;;;21.50;1.00;;;;;;4907013;29;20447;-84
2023/08/17 05:42:19;;;;;;;27.17;25.27;;;21.50;1.00;;;;;;4903982;29;20449;-84
2023/08/17 05:44:54;;;;;;;29.93;27.70;;;21.50;1.00;;;;;;4904451;29;20483;-84
2023/08/17 05:47:25;;;;;;;30.53;28.27;;;21.60;1.00;;;;;;4906683;29;20480;-85
2023/08/17 05:49:54;;;;;;;29.97;27.77;;;21.50;1.00;;;;;;4919357;29;20465;-84
2023/08/17 05:52:25;;;;;;;29.87;27.47;;;21.50;1.00;;;;;;4920173;29;20557;-87
2023/08/17 05:54:59;;;;;;;30.63;28.30;;;21.50;1.00;;;;;;4922572;29;20486;-85
2023/08/17 05:57:30;;;;;;;29.80;27.53;;;21.50;1.00;;;;;;4908644;29;20477;-84
2023/08/17 06:00:00;;;;;;;29.03;26.83;;;21.50;1.00;;;;;;4906916;29;20469;-86
2023/08/17 06:02:31;;;;;;;28.57;26.47;;;21.50;1.00;;;;;;4907916;29;20822;-85
2023/08/17 06:05:03;;;;;;;31.70;29.10;;;21.50;1.00;;;;;;4901827;29;20457;-85
2023/08/17 06:07:31;;;;;;;30.77;28.13;;;21.50;1.00;;;;;;4906710;29;20509;-85
2023/08/17 06:10:03;;;;;;;31.97;28.93;;;21.50;1.00;;;;;;4906146;29;20505;-84
2023/08/17 06:12:31;;;;;;;30.43;27.90;;;21.50;1.00;;;;;;4904752;29;20486;-86
2023/08/17 06:15:13;;;;;;;31.30;28.70;;;21.60;1.00;;;;;;4904158;29;20456;-85
2023/08/17 06:17:42;;;;;;;30.43;28.13;;;21.60;1.00;;;;;;4906825;29;20495;-86
2023/08/17 06:20:17;;;;;;;30.87;28.37;;;21.50;1.00;;;;;;4906730;29;20468;-85
2023/08/17 06:22:48;;;;;;;31.57;29.03;;;21.50;1.00;;;;;;4903907;29;20470;-84
2023/08/17 06:25:21;;;;;;;30.57;28.13;;;21.50;1.00;;;;;;4907675;29;20563;-85
2023/08/17 06:28:00;;;;;;;29.27;27.07;;;21.50;1.00;;;;;;4906463;29;20497;-85
2023/08/17 06:30:32;;;;;;;32.00;29.00;;;21.50;1.00;;;;;;4908925;29;20529;-84
2023/08/17 06:33:10;;;;;;;30.03;27.80;;;21.60;1.00;;;;;;4905677;29;20464;-85
2023/08/17 06:35:41;;;;;;;30.40;27.97;;;21.60;1.00;;;;;;4907470;29;21196;-84
2023/08/17 06:38:12;;;;;;;28.70;26.63;;;21.70;1.00;;;;;;4921982;29;20557;-85
2023/08/17 06:40:49;;;;;;;29.20;27.03;;;21.70;1.00;;;;;;4906146;29;20902;-85
2023/08/17 06:43:18;;;;;;;31.60;29.20;;;21.70;1.00;;;;;;4911088;29;20463;-85
2023/08/17 06:45:57;;;;;;;28.90;26.90;;;21.70;99.90;;;;;;4908317;29;20502;-84
2023/08/17 06:48:28;;;;;;;29.20;26.80;;;21.70;1.00;;;;;;4923797;29;20468;-85
2023/08/17 06:51:05;;;;;;;31.50;29.10;;;21.70;1.00;;;;;;4909182;29;20487;-84
2023/08/17 06:53:36;;;;;;;30.13;27.73;;;21.80;1.00;;;;;;4910779;29;20457;-88
2023/08/17 06:56:10;;;;;;;32.40;30.10;;;21.80;1.00;;;;;;4910921;29;20492;-85
2023/08/17 06:58:43;;;;;;;30.07;28.07;;;21.80;99.90;;;;;;4908533;29;20852;-84
2023/08/17 07:01:16;;;;;;;29.20;27.07;;;21.80;99.90;;;;;;4908824;29;20481;-86
2023/08/17 07:03:51;;;;;;;28.60;26.37;;;21.80;1.00;;;;;;4908956;29;20463;-87
2023/08/17 07:06:25;;;;;;;28.77;26.77;;;21.90;99.90;;;;;;4907733;29;20499;-84
2023/08/17 07:08:53;;;;;;;28.00;26.10;;;21.90;1.00;;;;;;4905960;29;20506;-84
2023/08/17 07:11:25;;;;;;;28.60;26.40;;;21.90;1.00;;;;;;4907756;29;20449;-85
2023/08/17 07:13:58;;;;;;;29.20;27.10;;;21.90;1.00;;;;;;4907317;29;20558;-85
2023/08/17 07:16:28;;;;;;;28.90;26.90;;;22.00;1.00;;;;;;4905817;29;20951;-85
2023/08/17 07:18:59;;;;;;;28.17;26.33;;;22.00;99.90;;;;;;4909305;29;20444;-85
2023/08/17 07:21:31;;;;;;;25.80;24.10;;;22.00;99.90;;;;;;4907472;29;20560;-86
2023/08/17 07:24:16;;;;;;;27.50;25.70;;;22.00;99.90;;;;;;4910024;29;20631;-84
2023/08/17 07:26:44;;;;;;;27.40;25.47;;;22.10;99.90;;;;;;4905202;29;20481;-85
2023/08/17 07:29:17;;;;;;;26.80;25.00;;;22.10;99.90;;;;;;4905010;29;20495;-84
2023/08/17 07:31:54;;;;;;;27.13;25.33;;;22.20;99.90;;;;;;4904881;29;20453;-85
2023/08/17 07:34:24;;;;;;;28.83;26.80;;;22.20;83.20;;;;;;4903941;29;20471;-85
2023/08/17 07:36:57;;;;;;;27.90;25.90;;;22.30;98.90;;;;;;4904862;29;20837;-84
2023/08/17 07:39:26;;;;;;;28.50;26.50;;;22.30;81.90;;;;;;4906985;29;20553;-84
2023/08/17 07:42:00;;;;;;;27.37;25.43;;;22.30;99.90;;;;;;4905402;29;20466;-84
2023/08/17 07:44:34;;;;;;;26.30;24.70;;;22.40;99.90;;;;;;4903647;29;21324;-85
2023/08/17 07:47:12;;;;;;;27.93;26.07;;;22.50;1.00;;;;;;4906600;29;20485;-85
2023/08/17 07:49:47;;;;;;;28.20;26.30;;;22.50;99.90;;;;;;4905083;29;20488;-85
2023/08/17 07:52:18;;;;;;;25.60;23.90;;;22.50;99.90;;;;;;4902456;29;20467;-86
2023/08/17 07:54:51;;;;;;;26.50;24.93;;;22.50;99.90;;;;;;4906638;29;20466;-86
2023/08/17 07:57:27;;;;;;;27.13;25.23;;;22.60;1.00;;;;;;4905026;29;20473;-85
2023/08/17 08:00:01;;;;;;;25.17;23.70;;;22.70;99.90;;;;;;4904320;29;20505;-89
2023/08/17 08:02:34;;;;;;;25.67;24.10;;;22.80;1.00;;;;;;4905464;29;20536;-85
2023/08/17 08:05:05;;;;;;;25.33;23.73;;;22.90;99.90;;;;;;4905584;29;20484;-85
2023/08/17 08:07:37;;;;;;;25.80;24.00;;;22.90;99.90;;;;;;4907394;29;20484;-86
2023/08/17 08:10:07;;;;;;;24.50;23.20;;;23.00;99.90;;;;;;4903915;29;20485;-80
2023/08/17 08:12:35;;;;;;;24.13;22.77;;;23.10;99.90;;;;;;4902603;29;20460;-81
2023/08/17 08:15:11;;;;;;;24.27;22.70;;;23.10;1.00;;;;;;4906377;29;20599;-85
2023/08/17 08:17:45;;;;;;;24.07;22.67;;;23.20;99.90;;;;;;4903933;29;20489;-86
2023/08/17 08:20:17;;;;;;;24.23;22.80;;;23.30;99.90;;;;;;4908526;29;20453;-85
2023/08/17 08:22:48;;;;;;;25.23;23.83;;;23.40;1.00;;;;;;4905939;29;20594;-85
2023/08/17 08:25:28;;;;;;;21.73;20.63;;;23.40;99.90;;;;;;4905569;29;20437;-85
2023/08/17 08:28:01;;;;;;;23.17;22.07;;;23.50;1.00;;;;;;4907167;29;20477;-86
2023/08/17 08:30:38;;;;;;;22.30;21.10;;;23.50;41.10;;;;;;4907725;29;21100;-87
2023/08/17 08:33:14;;;;;;;20.60;19.70;;;23.50;99.90;;;;;;4925266;29;20493;-84
2023/08/17 08:35:52;;;;;;;21.50;20.40;;;23.50;99.90;;;;;;4906278;29;20458;-86
2023/08/17 08:38:22;;;;;;;21.00;20.07;;;23.50;99.90;;;;;;4910495;29;20461;-86
2023/08/17 08:40:57;;;;;;;21.03;20.00;;;23.60;1.00;;;;;;4907080;29;20514;-85
2023/08/17 08:43:26;;;;;;;21.17;20.10;;;23.60;1.00;;;;;;4905898;29;20446;-85
2023/08/17 08:46:05;;;;;;;21.40;20.30;;;23.80;50.20;;;;;;4905926;29;20477;-85
2023/08/17 08:48:36;;;;;;;21.83;20.73;;;23.80;1.00;;;;;;4905035;29;20553;-85
2023/08/17 08:51:12;;;;;;;21.63;20.53;;;23.90;1.00;;;;;;4910328;29;20834;-87
2023/08/17 08:53:55;;;;;;;21.63;20.60;;;23.90;1.00;;;;;;4904335;29;21118;-86
2023/08/17 08:56:30;;;;;;;20.60;19.60;;;23.90;1.00;;;;;;4905871;29;20501;-86
2023/08/17 08:59:05;;;;;;;20.30;19.40;;;24.00;1.00;;;;;;4905532;29;20459;-86
2023/08/17 09:01:40;;;;;;;21.10;20.20;;;24.00;1.00;;;;;;4903199;29;20600;-85
2023/08/17 09:04:13;;;;;;;21.57;20.57;;;24.10;1.00;;;;;;4905067;29;20465;-86
2023/08/17 09:06:44;;;;;;;21.13;20.13;;;24.10;99.90;;;;;;4906866;29;20983;-86
2023/08/17 09:09:15;;;;;;;22.70;21.50;;;24.10;67.40;;;;;;4905635;29;20485;-85
2023/08/17 09:11:45;;;;;;;22.07;20.87;;;24.20;99.90;;;;;;4905809;29;20458;-85
2023/08/17 09:14:23;;;;;;;21.40;20.30;;;24.30;99.90;;;;;;4904355;29;20915;-89
2023/08/17 09:16:54;;;;;;;22.43;21.37;;;24.30;22.00;;;;;;4905578;29;20484;-86
2023/08/17 09:19:30;;;;;;;21.10;20.00;;;24.40;21.60;;;;;;4919734;29;20915;-87
2023/08/17 09:22:11;;;;;;;23.10;21.90;;;24.40;99.90;;;;;;4905688;29;21090;-86
2023/08/17 09:24:47;;;;;;;21.37;20.43;;;24.50;99.90;;;;;;4905129;29;20488;-87
2023/08/17 09:27:21;;;;;;;21.10;20.00;;;24.60;96.50;;;;;;4903365;29;20489;-87
2023/08/17 09:29:49;;;;;;;22.00;21.00;;;24.70;1.00;;;;;;4903804;29;20501;-86
2023/08/17 09:32:31;;;;;;;21.57;20.47;;;24.70;99.90;;;;;;4906481;29;20810;-90
2023/08/17 09:35:16;;;;;;;21.27;20.37;;;24.80;99.90;;;;;;4909622;29;20461;-88
2023/08/17 09:37:56;;;;;;;22.20;21.20;;;24.80;1.00;;;;;;4906214;29;20522;-84
2023/08/17 09:40:27;;;;;;;21.40;20.43;;;24.90;99.90;;;;;;4920299;29;20573;-86
2023/08/17 09:43:01;;;;;;;22.40;20.87;;;24.90;1.00;;;;;;4906009;29;20449;-86
2023/08/17 09:45:38;;;;;;;20.50;19.70;;;25.00;1.00;;;;;;4917322;29;20484;-87
2023/08/17 09:48:15;;;;;;;21.10;20.20;;;25.10;1.00;;;;;;4905666;29;20482;-84
2023/08/17 09:50:49;;;;;;;21.40;20.50;;;25.20;1.00;;;;;;4904285;29;20490;-88
2023/08/17 09:53:25;;;;;;;20.57;19.60;;;25.30;99.90;;;;;;4901789;29;20466;-87
2023/08/17 09:56:02;;;;;;;20.70;19.70;;;25.40;1.00;;;;;;4903233;29;20951;-86
2023/08/17 09:58:33;;;;;;;21.33;20.33;;;25.50;99.90;;;;;;4902442;29;20469;-86
2023/08/17 10:01:06;;;;;;;21.13;20.20;;;25.50;99.90;;;;;;4918551;29;20514;-85
2023/08/17 10:03:40;;;;;;;20.90;19.80;;;25.70;99.90;;;;;;4903221;29;20849;-86
2023/08/17 10:06:13;;;;;;;20.67;19.77;;;25.80;99.90;;;;;;4903083;29;20909;-86
2023/08/17 10:08:52;;;;;;;20.83;19.93;;;25.80;1.00;;;;;;4900400;29;20494;-84
2023/08/17 10:11:30;;;;;;;20.47;19.47;;;25.80;1.00;;;;;;4903496;29;20545;-85
2023/08/17 10:14:05;;;;;;;21.40;20.20;;;25.90;1.00;;;;;;4901242;29;20458;-86
2023/08/17 10:16:45;;;;;;;21.57;20.50;;;25.90;99.90;;;;;;4908575;29;20544;-85
2023/08/17 10:19:24;;;;;;;21.40;20.50;;;25.90;99.90;;;;;;4907750;29;20457;-86
2023/08/17 10:22:09;;;;;;;21.73;20.57;;;26.00;96.20;;;;;;4907770;29;20462;-85
2023/08/17 10:24:43;;;;;;;20.83;19.70;;;26.00;94.30;;;;;;4908691;29;20446;-85
2023/08/17 10:27:20;;;;;;;21.90;20.70;;;26.10;1.00;;;;;;4904862;29;20862;-85
2023/08/17 10:29:51;;;;;;;22.13;20.73;;;26.20;16.00;;;;;;4911795;29;20490;-87
2023/08/17 10:32:27;;;;;;;20.90;19.97;;;26.20;99.90;;;;;;4906936;29;20454;-88
2023/08/17 10:35:04;;;;;;;21.43;20.30;;;26.20;1.00;;;;;;4905926;29;20471;-85
2023/08/17 10:37:42;;;;;;;20.70;19.80;;;26.20;99.90;;;;;;4908638;29;20471;-88
2023/08/17 10:40:14;;;;;;;20.63;19.73;;;26.20;1.00;;;;;;4907671;29;20490;-84
2023/08/17 10:42:55;;;;;;;20.40;19.40;;;26.40;99.90;;;;;;4925842;29;20558;-88
2023/08/17 10:45:34;;;;;;;21.10;20.10;;;26.50;1.00;;;;;;4907771;29;20458;-85
2023/08/17 10:48:32;;;;;;;21.77;20.67;;;26.50;1.00;;;;;;4908015;29;20539;-86
2023/08/17 10:51:08;;;;;;;20.93;20.07;;;26.70;99.90;;;;;;4905210;29;20493;-86
2023/08/17 10:53:53;;;;;;;20.77;19.97;;;26.70;99.90;;;;;;4906806;29;20458;-86
2023/08/17 10:56:30;;;;;;;21.57;20.43;;;26.70;99.90;;;;;;4907439;29;20551;-86
2023/08/17 10:59:05;;;;;;;21.10;20.17;;;26.70;99.90;;;;;;4910305;29;20529;-86
2023/08/17 11:01:37;;;;;;;20.80;19.80;;;26.70;99.90;;;;;;4909178;29;20857;-87
2023/08/17 11:04:16;;;;;;;20.90;19.90;;;26.70;99.90;;;;;;4908096;29;20463;-86
2023/08/17 11:07:01;;;;;;;22.37;20.93;;;26.70;1.00;;;;;;4921380;29;20481;-84
2023/08/17 11:09:31;;;;;;;20.53;19.63;;;26.80;1.00;;;;;;4907442;29;20466;-85
2023/08/17 11:12:07;;;;;;;21.10;20.10;;;26.80;1.00;;;;;;4912620;29;20573;-86
2023/08/17 11:14:43;;;;;;;20.67;19.77;;;26.80;1.00;;;;;;4906936;29;20471;-86
2023/08/17 11:17:11;;;;;;;20.60;19.70;;;26.90;1.00;;;;;;4910497;29;20473;-86
2023/08/17 11:19:47;;;;;;;21.20;20.13;;;27.10;82.40;;;;;;4905646;29;20527;-86
2023/08/17 11:22:15;;;;;;;22.60;21.20;;;27.20;19.90;;;;;;4907617;29;20645;-86
2023/08/17 11:24:59;;;;;;;21.57;20.67;;;27.30;1.10;;;;;;4922111;29;21118;-85
2023/08/17 11:27:37;;;;;;;22.13;21.13;;;27.20;1.00;;;;;;4907123;29;20576;-85
2023/08/17 11:30:14;;;;;;;21.63;20.33;;;27.20;18.30;;;;;;4907021;29;21392;-86
2023/08/17 11:32:45;;;;;;;21.10;20.17;;;27.20;1.00;;;;;;4905172;29;20454;-83
2023/08/17 11:35:16;;;;;;;20.00;19.10;;;27.20;1.00;;;;;;4911513;29;20466;-85
2023/08/17 11:37:49;;;;;;;21.40;20.30;;;27.10;1.00;;;;;;4906034;29;20474;-86
2023/08/17 11:40:26;;;;;;;20.47;19.53;;;27.20;1.00;;;;;;4910352;29;20493;-87
2023/08/17 11:42:57;;;;;;;21.23;20.17;;;27.20;1.00;;;;;;4905822;29;20497;-86
2023/08/17 11:45:29;;;;;;;20.57;19.73;;;27.30;1.00;;;;;;4909803;28;20482;-85
2023/08/17 11:48:00;;;;;;;21.40;20.50;;;27.30;1.00;;;;;;4926266;29;20486;-89
2023/08/17 11:50:41;;;;;;;21.70;20.70;;;27.50;1.00;;;;;;4912136;29;20493;-87
2023/08/17 11:53:10;;;;;;;21.60;20.43;;;27.40;1.00;;;;;;4906643;29;20464;-85
2023/08/17 11:55:54;;;;;;;21.03;20.17;;;27.50;1.00;;;;;;4912379;29;21007;-85
2023/08/17 11:58:38;;;;;;;22.40;21.40;;;27.40;1.00;;;;;;4908846;29;20537;-86
2023/08/17 12:01:11;;;;;;;22.10;21.10;;;27.40;1.00;;;;;;4907468;29;20477;-85
2023/08/17 12:03:44;;;;;;;21.33;20.33;;;27.30;1.00;;;;;;4912236;29;20467;-85
2023/08/17 12:06:20;;;;;;;21.63;20.50;;;27.20;1.00;;;;;;4911115;29;20550;-89
2023/08/17 12:08:49;;;;;;;20.93;20.10;;;27.10;1.00;;;;;;4907477;29;20469;-86
2023/08/17 12:11:25;;;;;;;20.93;20.03;;;27.10;1.00;;;;;;4911573;29;20615;-85
2023/08/17 12:13:54;;;;;;;22.30;21.10;;;27.10;1.00;;;;;;4918981;29;20490;-85
2023/08/17 12:16:26;;;;;;;22.60;21.40;;;27.00;1.00;;;;;;4905739;29;20467;-85
2023/08/17 12:18:55;;;;;;;22.10;21.10;;;27.00;1.00;;;;;;4908736;29;20939;-87
2023/08/17 12:21:29;;;;;;;22.37;21.37;;;26.90;1.00;;;;;;4908781;29;20460;-87
2023/08/17 12:24:06;;;;;;;21.77;20.70;;;26.90;1.00;;;;;;4910878;29;20556;-87
2023/08/17 12:26:42;;;;;;;22.20;20.93;;;26.90;1.00;;;;;;4904109;29;20995;-87
2023/08/17 12:29:15;;;;;;;21.40;20.50;;;26.90;1.00;;;;;;4906693;29;20521;-85
2023/08/17 12:31:49;;;;;;;21.23;20.33;;;26.80;1.00;;;;;;4904946;29;20593;-88
2023/08/17 12:34:27;;;;;;;22.10;20.90;;;26.80;1.00;;;;;;4907483;29;20461;-87
2023/08/17 12:37:04;;;;;;;20.80;19.80;;;26.80;1.00;;;;;;4905194;29;20475;-86
2023/08/17 12:39:33;;;;;;;21.03;20.13;;;26.80;1.00;;;;;;4909067;29;20438;-85
2023/08/17 12:42:14;;;;;;;21.03;20.07;;;26.70;1.00;;;;;;4908357;29;20450;-87
2023/08/17 12:44:45;;;;;;;20.90;19.93;;;26.80;1.00;;;;;;4905969;29;20472;-85
2023/08/17 12:47:20;;;;;;;20.47;19.60;;;26.70;1.00;;;;;;4904656;29;20504;-86
2023/08/17 12:49:53;;;;;;;20.80;19.87;;;26.60;1.00;;;;;;4907116;29;20466;-84
2023/08/17 12:52:24;;;;;;;22.63;21.47;;;26.50;1.00;;;;;;4906975;29;20470;-87
2023/08/17 12:54:54;;;;;;;22.00;20.90;;;26.40;99.90;;;;;;4904531;29;20457;-84
2023/08/17 12:57:31;;;;;;;23.47;22.17;;;26.30;99.90;;;;;;4919983;29;20576;-85
2023/08/17 13:00:00;;;;;;;22.70;21.40;;;26.20;1.00;;;;;;4905901;29;20479;-85
2023/08/17 13:02:33;;;;;;;21.83;20.83;;;26.20;1.00;;;;;;4902368;29;20443;-85
2023/08/17 13:05:04;;;;;;;22.30;21.23;;;26.00;1.00;;;;;;4904013;29;20696;-85